Time;durP1;ratioP1;P1;durP2;ratioP2;P2;SDS_P1;SDS_P2;PMS_P1;PMS_P2;Temp;Humidity;BMP_temperature;BMP_pressure;BME280_temperature;BME280_humidity;BME280_pressure;Samples;Min_cycle;Max_cycle;Signal;HPM_P1;HPM_P2
2022/08/10 00:07:02;;;;;;;3.20;2.90;;;;;21.40;99512.00;;;;16793651;28;20221;-47
2022/08/10 00:15:06;;;;;;;3.13;2.93;;;;;21.40;99512.00;;;;16794882;28;20225;-47
2022/08/10 00:23:09;;;;;;;4.93;2.60;;;;;21.40;99514.00;;;;16799360;28;20227;-47
2022/08/10 00:31:12;;;;;;;2.80;2.60;;;;;22.00;99512.00;;;;16796196;28;20221;-47
2022/08/10 00:39:16;;;;;;;2.60;2.40;;;;;21.00;99516.00;;;;16786680;28;20335;-47
2022/08/10 00:47:18;;;;;;;3.00;2.80;;;;;21.20;99510.00;;;;16788255;28;20253;-47
2022/08/10 00:55:22;;;;;;;3.53;3.23;;;;;21.80;99518.00;;;;16796276;28;20223;-47
2022/08/10 01:03:25;;;;;;;2.60;2.40;;;;;20.80;99508.00;;;;16793494;28;20298;-47
2022/08/10 01:11:34;;;;;;;3.80;3.17;;;;;20.70;99504.00;;;;16779224;28;20375;-47
2022/08/10 01:19:47;;;;;;;3.30;3.00;;;;;20.50;99505.00;;;;16788319;28;20312;-47
2022/08/10 01:27:58;;;;;;;3.80;3.43;;;;;20.50;99509.00;;;;16790527;28;20217;-47
2022/08/10 01:36:09;;;;;;;3.30;3.00;;;;;20.30;99514.00;;;;16791354;28;20239;-47
2022/08/10 01:44:13;;;;;;;3.30;3.03;;;;;20.10;99511.00;;;;16794387;28;20685;-47
2022/08/10 01:52:19;;;;;;;3.53;3.20;;;;;20.30;99511.00;;;;16796047;28;20229;-47
2022/08/10 02:00:22;;;;;;;4.37;2.80;;;;;20.30;99518.00;;;;16793338;28;20317;-47
2022/08/10 02:08:26;;;;;;;3.67;3.37;;;;;20.20;99513.00;;;;16791899;28;20312;-47
2022/08/10 02:16:29;;;;;;;3.60;3.30;;;;;19.90;99513.00;;;;16783041;28;20218;-47
2022/08/10 02:24:34;;;;;;;3.30;3.10;;;;;20.10;99516.00;;;;16795109;28;20196;-47
2022/08/10 02:32:38;;;;;;;3.70;3.40;;;;;19.80;99515.00;;;;16796518;28;20747;-47
2022/08/10 02:40:43;;;;;;;3.67;3.37;;;;;19.70;99515.00;;;;16781379;28;20736;-47
2022/08/10 02:48:49;;;;;;;3.80;3.50;;;;;19.60;99516.00;;;;16787692;28;20383;-47
2022/08/10 02:56:55;;;;;;;3.80;3.47;;;;;20.00;99510.00;;;;16790361;28;20590;-47
2022/08/10 03:05:01;;;;;;;4.10;3.60;;;;;19.40;99517.00;;;;16788534;28;20198;-47
2022/08/10 03:13:08;;;;;;;4.20;3.90;;;;;19.20;99517.00;;;;16781984;28;20223;-47
2022/08/10 03:21:11;;;;;;;4.20;4.00;;;;;19.40;99526.00;;;;16796534;28;20232;-47
2022/08/10 03:29:14;;;;;;;3.80;3.40;;;;;19.40;99513.00;;;;16797565;28;20213;-47
2022/08/10 03:37:17;;;;;;;3.80;3.60;;;;;19.40;99525.00;;;;16802600;28;20217;-47
2022/08/10 03:45:22;;;;;;;3.77;3.40;;;;;19.40;99520.00;;;;16798013;28;20203;-47
2022/08/10 03:53:25;;;;;;;4.30;3.90;;;;;19.30;99518.00;;;;16800563;28;20243;-47
2022/08/10 04:01:29;;;;;;;4.20;3.80;;;;;19.30;99516.00;;;;16808027;28;20232;-47
2022/08/10 04:09:33;;;;;;;4.70;4.40;;;;;19.00;99536.00;;;;16798874;28;20217;-47
2022/08/10 04:17:36;;;;;;;5.00;4.50;;;;;19.30;99536.00;;;;16802947;28;20312;-47
2022/08/10 04:25:40;;;;;;;5.57;5.00;;;;;18.80;99539.00;;;;16801045;28;20200;-47
2022/08/10 04:33:50;;;;;;;7.77;5.60;;;;;19.90;99545.00;;;;16792334;28;20228;-47
2022/08/10 04:41:53;;;;;;;6.47;5.97;;;;;19.40;99548.00;;;;16790108;28;20702;-47
2022/08/10 04:49:56;;;;;;;8.87;6.50;;;;;19.30;99552.00;;;;16778116;22;20423;-47
2022/08/10 04:57:59;;;;;;;7.63;6.70;;;;;19.60;99539.00;;;;16698696;28;20356;-47
2022/08/10 05:06:03;;;;;;;9.70;6.97;;;;;19.60;99547.00;;;;16690136;28;20210;-46
2022/08/10 05:14:05;;;;;;;11.70;8.20;;;;;20.00;99547.00;;;;16697057;28;20220;-47
2022/08/10 05:22:09;;;;;;;11.27;8.83;;;;;19.20;99563.00;;;;16697800;28;20220;-50
2022/08/10 05:30:13;;;;;;;10.47;8.50;;;;;19.90;99546.00;;;;16698793;28;20221;-50
2022/08/10 05:38:17;;;;;;;12.40;9.67;;;;;19.90;99554.00;;;;16697656;28;20419;-51
2022/08/10 05:46:20;;;;;;;10.50;7.60;;;;;20.90;99547.00;;;;16685639;28;20200;-50
2022/08/10 05:54:25;;;;;;;9.93;7.97;;;;;21.00;99560.00;;;;16693317;28;20384;-50
2022/08/10 06:02:30;;;;;;;7.63;6.00;;;;;21.40;99549.00;;;;16699009;28;20225;-50
2022/08/10 06:10:36;;;;;;;8.00;7.03;;;;;21.90;99546.00;;;;16692807;28;20533;-50
2022/08/10 06:18:39;;;;;;;9.10;6.10;;;;;22.90;99548.00;;;;16704885;28;20222;-49
2022/08/10 06:26:43;;;;;;;16.13;5.30;;;;;24.50;99538.00;;;;16688847;28;20198;-50
2022/08/10 06:34:47;;;;;;;7.30;4.77;;;;;25.00;99534.00;;;;16691658;28;20288;-49
2022/08/10 06:42:51;;;;;;;8.77;4.60;;;;;25.30;99532.00;;;;16685078;28;20364;-50
2022/08/10 06:50:59;;;;;;;5.97;4.70;;;;;26.10;99536.00;;;;16689352;28;20321;-51
2022/08/10 06:59:07;;;;;;;6.77;5.00;;;;;26.20;99533.00;;;;16711363;28;20229;-50
2022/08/10 07:07:10;;;;;;;5.53;3.07;;;;;26.70;99534.00;;;;16709692;28;20243;-49
2022/08/10 07:15:16;;;;;;;3.67;3.33;;;;;26.60;99534.00;;;;16694178;28;20222;-48
2022/08/10 07:23:19;;;;;;;3.57;3.23;;;;;27.20;99530.00;;;;16708496;28;20671;-50
2022/08/10 07:31:23;;;;;;;7.80;3.37;;;;;27.40;99532.00;;;;16697130;28;20262;-51
2022/08/10 07:39:29;;;;;;;5.90;2.63;;;;;27.30;99528.00;;;;16687652;28;20231;-50
2022/08/10 07:47:37;;;;;;;4.43;2.97;;;;;27.40;99527.00;;;;16684312;28;20238;-51
2022/08/10 07:55:41;;;;;;;5.33;2.20;;;;;27.40;99524.00;;;;16687306;28;20622;-49
2022/08/10 08:03:46;;;;;;;3.80;2.67;;;;;27.40;99523.00;;;;16707495;28;20218;-49
2022/08/10 08:11:49;;;;;;;4.00;2.50;;;;;27.70;99522.00;;;;16695581;28;20225;-49
2022/08/10 08:19:54;;;;;;;4.90;3.00;;;;;28.30;99519.00;;;;16685043;28;20603;-50
2022/08/10 08:28:00;;;;;;;3.97;3.50;;;;;28.00;99516.00;;;;16693813;28;20214;-50
2022/08/10 08:36:04;;;;;;;6.93;2.50;;;;;28.50;99523.00;;;;16687690;28;20474;-50
2022/08/10 08:44:11;;;;;;;3.43;2.70;;;;;28.70;99518.00;;;;16678369;28;20221;-49
2022/08/10 08:52:33;;;;;;;5.13;2.40;;;;;29.20;99521.00;;;;16667915;28;20390;-48
2022/08/10 09:00:41;;;;;;;3.73;2.70;;;;;28.40;99505.00;;;;16676666;28;20242;-49
2022/08/10 09:09:10;;;;;;;8.30;7.60;;;;;29.30;99502.00;;;;16685058;28;20226;-49
2022/08/10 09:17:18;;;;;;;2.60;2.40;;;;;29.40;99506.00;;;;16678009;28;20230;-49
2022/08/10 09:25:24;;;;;;;4.63;2.43;;;;;28.80;99464.00;;;;16685076;28;20271;-48
2022/08/10 09:33:38;;;;;;;1.80;1.70;;;;;29.20;99496.00;;;;16672250;28;20702;-50
2022/08/10 09:41:51;;;;;;;3.90;2.33;;;;;29.10;99486.00;;;;16679508;28;20248;-48
2022/08/10 09:50:05;;;;;;;3.00;2.23;;;;;29.50;99480.00;;;;16687462;28;20353;-47
2022/08/10 09:58:28;;;;;;;3.80;2.37;;;;;29.70;99471.00;;;;16685222;28;20307;-48
2022/08/10 10:06:43;;;;;;;2.73;2.20;;;;;30.60;99469.00;;;;16685364;28;20561;-48
2022/08/10 10:23:23;;;;;;;3.43;2.47;;;;;30.70;99485.00;;;;16681855;28;20253;-48
2022/08/10 10:31:31;;;;;;;2.40;2.20;;;;;31.90;99466.00;;;;16679339;28;20225;-48
2022/08/10 10:39:35;;;;;;;1.93;1.83;;;;;31.50;99460.00;;;;16690780;28;20297;-49
2022/08/10 10:47:59;;;;;;;4.17;2.23;;;;;31.20;99467.00;;;;16703660;22;20230;-68
2022/08/10 10:56:05;;;;;;;3.40;2.30;;;;;31.30;99460.00;;;;16753560;28;20248;-68
2022/08/10 11:04:18;;;;;;;2.20;2.00;;;;;32.40;99462.00;;;;16753792;28;20280;-67
2022/08/10 11:12:25;;;;;;;5.43;2.10;;;;;32.20;99445.00;;;;16751037;28;20222;-67
2022/08/10 11:20:35;;;;;;;2.83;1.90;;;;;31.00;99433.00;;;;16755209;28;20217;-65
2022/08/10 11:28:43;;;;;;;7.60;2.30;;;;;33.10;99457.00;;;;16738217;28;20272;-66
2022/08/10 11:36:57;;;;;;;4.00;1.80;;;;;33.70;99445.00;;;;16736448;28;20308;-67
2022/08/10 11:45:03;;;;;;;2.67;2.27;;;;;33.20;99453.00;;;;16756858;28;20300;-67
2022/08/10 11:53:13;;;;;;;4.47;3.20;;;;;33.60;99442.00;;;;16759278;28;20220;-67
2022/08/10 12:01:19;;;;;;;4.13;2.37;;;;;34.60;99447.00;;;;16759570;28;20693;-68
2022/08/10 12:09:23;;;;;;;3.33;2.43;;;;;34.50;99408.00;;;;16752428;28;20289;-70
2022/08/10 12:17:31;;;;;;;2.37;1.70;;;;;34.20;99426.00;;;;16752638;28;20250;-67
2022/08/10 12:25:38;;;;;;;2.47;1.60;;;;;33.50;99422.00;;;;16754113;28;20300;-68
2022/08/10 12:33:46;;;;;;;1.97;1.77;;;;;34.50;99428.00;;;;16764930;28;20450;-67
2022/08/10 12:41:56;;;;;;;2.03;1.83;;;;;34.80;99415.00;;;;16769798;28;20221;-68
2022/08/10 12:50:07;;;;;;;2.43;2.23;;;;;34.70;99407.00;;;;16774393;28;20694;-68
2022/08/10 12:58:13;;;;;;;3.33;1.90;;;;;37.00;99406.00;;;;16763270;28;20247;-67
2022/08/10 13:06:16;;;;;;;5.40;4.20;;;;;34.90;99384.00;;;;16758065;28;20213;-69
2022/08/10 13:14:26;;;;;;;7.53;2.50;;;;;35.60;99385.00;;;;16757679;28;20291;-70
2022/08/10 13:22:31;;;;;;;3.60;2.30;;;;;37.10;99383.00;;;;16756911;28;20716;-67
2022/08/10 13:30:36;;;;;;;2.90;2.40;;;;;35.60;99371.00;;;;16760236;28;20239;-66
2022/08/10 13:38:42;;;;;;;3.90;2.37;;;;;35.30;99365.00;;;;16772516;28;20597;-66
2022/08/10 13:46:51;;;;;;;2.17;1.83;;;;;35.30;99351.00;;;;16763001;28;20220;-66
2022/08/10 13:54:54;;;;;;;4.23;2.20;;;;;36.30;99353.00;;;;16762592;28;20439;-70
2022/08/10 14:03:03;;;;;;;2.27;1.93;;;;;36.60;99336.00;;;;16769695;28;20225;-67
2022/08/10 14:11:11;;;;;;;4.70;1.60;;;;;38.00;99335.00;;;;16760611;28;20237;-67
2022/08/10 14:19:19;;;;;;;2.60;2.03;;;;;37.40;99336.00;;;;16765680;28;20265;-70
2022/08/10 14:27:23;;;;;;;4.20;2.00;;;;;37.90;99328.00;;;;16756901;28;20309;-68
2022/08/10 14:35:27;;;;;;;2.50;1.70;;;;;37.40;99322.00;;;;16743317;28;20489;-66
2022/08/10 14:43:35;;;;;;;8.87;2.00;;;;;38.80;99315.00;;;;16747127;28;20671;-69
2022/08/10 14:51:44;;;;;;;11.67;2.67;;;;;38.00;99305.00;;;;16757164;28;20252;-68
2022/08/10 14:59:48;;;;;;;3.27;2.00;;;;;37.80;99312.00;;;;16734638;28;20236;-69
2022/08/10 15:07:53;;;;;;;1.93;1.60;;;;;39.20;99311.00;;;;16729670;28;20230;-69
2022/08/10 15:15:58;;;;;;;3.77;2.50;;;;;37.50;99304.00;;;;16752985;28;20260;-69
2022/08/10 15:24:02;;;;;;;3.03;2.40;;;;;38.50;99290.00;;;;16759592;28;20211;-68
2022/08/10 15:40:32;;;;;;;3.37;1.77;;;;;38.60;99285.00;;;;16756826;28;20221;-68
2022/08/10 15:48:44;;;;;;;2.17;1.83;;;;;39.20;99286.00;;;;16754804;28;20230;-69
2022/08/10 15:56:51;;;;;;;1.83;1.70;;;;;39.00;99272.00;;;;16751578;28;20710;-69
2022/08/10 16:04:57;;;;;;;2.00;1.57;;;;;38.50;99268.00;;;;16756304;28;20218;-68
2022/08/10 16:13:03;;;;;;;2.40;1.63;;;;;37.50;99270.00;;;;16859609;22;20316;-80
2022/08/10 16:21:12;;;;;;;1.87;1.37;;;;;38.50;99255.00;;;;16756493;28;20232;-80
2022/08/10 16:29:19;;;;;;;2.57;1.90;;;;;37.70;99258.00;;;;16740364;28;20252;-81
2022/08/10 16:37:22;;;;;;;8.10;2.20;;;;;36.50;99245.00;;;;16751321;28;20232;-82
2022/08/10 16:45:32;;;;;;;1.60;1.50;;;;;38.10;99253.00;;;;16790502;28;20296;-83
2022/08/10 16:53:38;;;;;;;2.83;2.07;;;;;38.30;99255.00;;;;16764833;28;20277;-83
2022/08/10 17:01:43;;;;;;;1.60;1.50;;;;;37.20;99240.00;;;;16755064;28;20706;-82
2022/08/10 17:09:47;;;;;;;2.63;2.03;;;;;37.10;99235.00;;;;16757036;28;20225;-82
2022/08/10 17:17:52;;;;;;;3.40;1.83;;;;;38.20;99242.00;;;;16777408;28;20635;-82
2022/08/10 17:25:58;;;;;;;3.40;2.87;;;;;38.40;99239.00;;;;16752140;28;20225;-82
2022/08/10 17:34:08;;;;;;;3.27;2.30;;;;;38.60;99244.00;;;;16728195;28;20298;-82
2022/08/10 17:42:11;;;;;;;2.30;2.10;;;;;38.20;99241.00;;;;16772665;28;20240;-80
2022/08/10 17:50:15;;;;;;;4.97;2.07;;;;;36.80;99238.00;;;;16756926;28;20288;-80
2022/08/10 17:58:19;;;;;;;3.43;2.47;;;;;35.10;99239.00;;;;16751685;28;20281;-79
2022/08/10 18:06:23;;;;;;;3.13;2.33;;;;;36.20;99242.00;;;;16738761;28;20259;-80
2022/08/10 18:14:30;;;;;;;3.40;3.10;;;;;34.50;99259.00;;;;16756685;28;20221;-80
2022/08/10 18:22:38;;;;;;;2.40;2.20;;;;;33.10;99250.00;;;;16733661;28;20232;-79
2022/08/10 18:30:46;;;;;;;2.20;2.10;;;;;32.60;99259.00;;;;16736425;28;20768;-80
2022/08/10 18:38:53;;;;;;;3.87;2.73;;;;;32.20;99261.00;;;;16731817;28;20299;-80
2022/08/10 18:47:00;;;;;;;5.97;3.67;;;;;31.40;99273.00;;;;16752233;28;20296;-78
2022/08/10 18:55:10;;;;;;;4.90;3.23;;;;;31.40;99270.00;;;;16765355;28;20279;-80
2022/08/10 19:03:25;;;;;;;3.50;3.20;;;;;31.30;99279.00;;;;16738475;28;20241;-80
2022/08/10 19:11:45;;;;;;;3.30;2.97;;;;;31.00;99287.00;;;;16767165;28;20233;-79
2022/08/10 19:19:56;;;;;;;35.07;30.57;;;;;29.70;99293.00;;;;16751388;22;20239;-47
2022/08/10 19:28:10;;;;;;;5.40;4.10;;;;;27.40;99316.00;;;;16701325;28;20719;-48
2022/08/10 19:36:17;;;;;;;2.70;2.50;;;;;26.50;99319.00;;;;16703717;28;20194;-47
2022/08/10 19:44:26;;;;;;;3.33;3.03;;;;;26.10;99324.00;;;;16702874;28;20222;-47
2022/08/10 19:52:34;;;;;;;2.70;2.50;;;;;25.80;99311.00;;;;16705793;28;20214;-48
2022/08/10 20:00:46;;;;;;;4.27;2.60;;;;;24.40;99314.00;;;;16707991;28;20268;-46
2022/08/10 20:08:55;;;;;;;3.40;3.10;;;;;24.70;99322.00;;;;16719087;28;20269;-48
2022/08/10 20:17:04;;;;;;;3.10;2.80;;;;;24.40;99328.00;;;;16723419;28;20217;-47
2022/08/10 20:25:12;;;;;;;3.50;3.20;;;;;24.10;99334.00;;;;16712643;28;20301;-47
2022/08/10 20:33:25;;;;;;;3.10;2.80;;;;;23.80;99335.00;;;;16715771;28;20655;-47
2022/08/10 20:41:33;;;;;;;3.03;2.73;;;;;23.80;99331.00;;;;16712400;28;20230;-47
2022/08/10 20:49:43;;;;;;;3.50;3.20;;;;;23.70;99325.00;;;;16716036;28;20226;-48
2022/08/10 20:58:00;;;;;;;3.10;2.87;;;;;24.00;99322.00;;;;16712279;28;20315;-48
2022/08/10 21:06:38;;;;;;;3.13;2.83;;;;;22.90;99310.00;;;;16706441;28;20372;-47
2022/08/10 21:14:49;;;;;;;3.40;3.10;;;;;23.70;99311.00;;;;16688860;28;20222;-47
2022/08/10 21:22:54;;;;;;;4.30;3.13;;;;;23.20;99310.00;;;;16711317;28;20221;-47
2022/08/10 23:03:21;;;;;;;4.90;2.60;;;;;21.30;99317.00;;;;16731976;28;20257;-48
2022/08/10 23:11:27;;;;;;;2.90;2.60;;;;;21.10;99313.00;;;;16709034;28;20639;-47
2022/08/10 23:27:36;;;;;;;4.40;2.70;;;;;20.60;99314.00;;;;16719347;28;20602;-48
2022/08/10 23:35:49;;;;;;;3.13;2.93;;;;;20.70;99322.00;;;;16705107;28;20284;-48
2022/08/10 23:43:56;;;;;;;2.50;2.30;;;;;20.60;99315.00;;;;16715568;28;20274;-48
2022/08/10 23:51:58;;;;;;;3.10;2.83;;;;;20.50;99315.00;;;;16712899;28;20232;-47
